createdAt,value
2022-07-31T00:02:08.089Z,4.23
2022-07-31T00:04:35.043Z,4.35
2022-07-31T00:07:02.425Z,4.63
2022-07-31T00:09:53.374Z,8.38
2022-07-31T00:12:17.766Z,6.15
2022-07-31T00:14:45.261Z,6.13
2022-07-31T00:17:12.108Z,3.92
2022-07-31T00:19:38.965Z,4.28
2022-07-31T00:22:05.901Z,5.40
2022-07-31T00:24:32.705Z,4.80
2022-07-31T00:27:00.019Z,4.83
2022-07-31T00:29:27.162Z,5.15
2022-07-31T00:31:54.021Z,3.60
2022-07-31T00:34:20.860Z,7.53
2022-07-31T00:36:47.826Z,5.60
2022-07-31T00:39:15.551Z,4.60
2022-07-31T00:41:43.860Z,4.10
2022-07-31T00:44:12.748Z,4.35
2022-07-31T00:46:40.580Z,5.45
2022-07-31T00:49:10.393Z,6.00
2022-07-31T00:51:38.303Z,7.07
2022-07-31T00:54:06.105Z,5.90
2022-07-31T00:56:33.098Z,5.88
2022-07-31T00:59:00.200Z,5.22
2022-07-31T01:01:27.855Z,4.40
2022-07-31T01:03:54.944Z,6.23
2022-07-31T01:06:21.986Z,4.40
2022-07-31T01:08:48.941Z,6.82
2022-07-31T01:11:36.515Z,5.38
2022-07-31T01:14:07.119Z,4.68
2022-07-31T01:16:43.096Z,6.43
2022-07-31T01:19:43.454Z,5.10
2022-07-31T01:22:33.600Z,6.13
2022-07-31T01:25:12.205Z,6.40
2022-07-31T01:27:57.718Z,7.32
2022-07-31T01:30:30.612Z,6.07
2022-07-31T01:32:57.704Z,7.15
2022-07-31T01:35:27.704Z,5.68
2022-07-31T01:38:01.239Z,5.85
2022-07-31T01:40:35.760Z,5.68
2022-07-31T01:43:05.718Z,7.10
2022-07-31T01:45:32.684Z,3.92
2022-07-31T01:48:00.527Z,6.35
2022-07-31T01:50:42.230Z,9.02
2022-07-31T01:53:10.663Z,10.55
2022-07-31T01:56:02.606Z,5.27
2022-07-31T01:58:25.239Z,6.30
2022-07-31T02:00:53.475Z,8.50
2022-07-31T02:03:20.381Z,6.60
2022-07-31T02:06:07.245Z,4.80
2022-07-31T02:08:34.203Z,6.23
2022-07-31T02:11:01.759Z,5.50
2022-07-31T02:13:28.785Z,8.10
2022-07-31T02:15:56.763Z,9.27
2022-07-31T02:18:23.940Z,7.82
2022-07-31T02:20:51.099Z,5.27
2022-07-31T02:23:18.362Z,6.75
2022-07-31T02:25:45.582Z,6.55
2022-07-31T02:28:15.341Z,6.03
2022-07-31T02:30:43.640Z,7.35
2022-07-31T02:33:13.070Z,8.10
2022-07-31T02:35:44.083Z,4.78
2022-07-31T02:38:21.690Z,7.00
2022-07-31T02:40:58.507Z,5.72
2022-07-31T02:43:25.860Z,6.30
2022-07-31T02:45:52.683Z,6.63
2022-07-31T02:48:19.605Z,5.28
2022-07-31T02:50:46.379Z,6.15
2022-07-31T02:53:13.283Z,7.10
2022-07-31T02:55:40.186Z,8.75
2022-07-31T02:58:07.022Z,6.97
2022-07-31T03:00:34.050Z,7.35
2022-07-31T03:03:00.940Z,5.78
2022-07-31T03:05:27.946Z,7.43
2022-07-31T03:07:54.781Z,6.53
2022-07-31T03:10:22.524Z,5.87
2022-07-31T03:12:51.071Z,7.07
2022-07-31T03:15:19.564Z,13.15
2022-07-31T03:17:46.701Z,6.80
2022-07-31T03:20:14.109Z,6.85
2022-07-31T03:22:41.025Z,5.97
2022-07-31T03:25:08.339Z,6.13
2022-07-31T03:27:35.480Z,9.35
2022-07-31T03:30:02.681Z,6.45
2022-07-31T03:32:30.667Z,6.20
2022-07-31T03:34:57.560Z,6.30
2022-07-31T03:37:24.360Z,4.13
2022-07-31T03:39:51.200Z,4.43
2022-07-31T03:42:18.733Z,5.20
2022-07-31T03:44:46.365Z,6.88
2022-07-31T03:47:13.259Z,6.47
2022-07-31T03:49:43.623Z,6.90
2022-07-31T03:52:12.407Z,11.27
2022-07-31T03:54:40.334Z,5.20
2022-07-31T03:57:07.183Z,6.55
2022-07-31T03:59:40.734Z,5.13
2022-07-31T04:02:18.896Z,4.55
2022-07-31T04:04:46.097Z,5.70
2022-07-31T04:07:13.001Z,5.55
2022-07-31T04:09:39.854Z,4.25
2022-07-31T04:12:07.198Z,5.50
2022-07-31T04:14:34.383Z,6.63
2022-07-31T04:17:01.245Z,4.18
2022-07-31T04:19:31.105Z,5.13
2022-07-31T04:21:58.740Z,5.03
2022-07-31T04:24:26.070Z,6.00
2022-07-31T04:26:55.121Z,6.38
2022-07-31T04:29:22.021Z,5.30
2022-07-31T04:31:48.980Z,5.15
2022-07-31T04:34:15.785Z,4.28
2022-07-31T04:36:42.609Z,5.53
2022-07-31T04:39:09.429Z,3.95
2022-07-31T04:41:36.481Z,7.38
2022-07-31T04:44:03.502Z,4.95
2022-07-31T04:46:30.465Z,5.45
2022-07-31T04:48:57.448Z,5.20
2022-07-31T04:51:24.423Z,5.35
2022-07-31T04:53:51.439Z,4.32
2022-07-31T04:56:39.282Z,4.88
2022-07-31T04:59:07.642Z,4.80
2022-07-31T05:01:34.681Z,4.73
2022-07-31T05:04:01.690Z,5.35
2022-07-31T05:06:47.967Z,5.13
2022-07-31T05:09:19.685Z,7.22
2022-07-31T05:11:52.742Z,7.57
2022-07-31T05:14:20.880Z,5.37
2022-07-31T05:16:48.007Z,6.38
2022-07-31T05:19:15.131Z,4.93
2022-07-31T05:21:46.945Z,5.78
2022-07-31T05:24:22.653Z,6.63
2022-07-31T05:27:04.222Z,7.37
2022-07-31T05:29:31.922Z,5.68
2022-07-31T05:32:00.445Z,5.25
2022-07-31T05:34:30.065Z,5.78
2022-07-31T05:37:03.921Z,3.50
2022-07-31T05:39:30.866Z,5.03
2022-07-31T05:41:57.730Z,6.70
2022-07-31T05:44:24.886Z,4.45
2022-07-31T05:49:18.365Z,4.63
2022-07-31T05:51:45.635Z,3.37
2022-07-31T05:54:12.511Z,4.57
2022-07-31T05:56:39.308Z,5.38
2022-07-31T05:59:06.127Z,5.28
2022-07-31T06:01:33.100Z,3.88
2022-07-31T06:03:59.923Z,7.63
2022-07-31T06:06:27.134Z,6.10
2022-07-31T06:08:54.318Z,7.05
2022-07-31T06:11:22.239Z,5.10
2022-07-31T06:13:49.207Z,6.03
2022-07-31T06:16:16.103Z,4.67
2022-07-31T06:18:43.055Z,6.90
2022-07-31T06:23:37.337Z,5.72
2022-07-31T06:26:04.893Z,4.05
2022-07-31T06:28:37.871Z,4.57
2022-07-31T06:31:19.162Z,6.40
2022-07-31T06:33:48.136Z,3.85
2022-07-31T06:36:16.040Z,5.53
2022-07-31T06:38:42.949Z,5.68
2022-07-31T06:41:09.834Z,4.40
2022-07-31T06:43:36.724Z,4.70
2022-07-31T06:46:03.585Z,4.50
2022-07-31T06:48:30.444Z,3.25
2022-07-31T06:51:28.366Z,5.55
2022-07-31T06:53:44.422Z,4.20
2022-07-31T06:56:11.282Z,3.30
2022-07-31T06:58:38.188Z,3.58
2022-07-31T07:01:05.218Z,4.65
2022-07-31T07:03:32.262Z,4.15
2022-07-31T07:05:59.600Z,4.20
2022-07-31T07:08:26.514Z,6.38
2022-07-31T07:10:53.331Z,3.95
2022-07-31T07:13:20.447Z,4.47
2022-07-31T07:15:49.057Z,3.22
2022-07-31T07:18:16.005Z,3.57
2022-07-31T07:20:42.877Z,5.97
2022-07-31T07:23:09.865Z,4.00
2022-07-31T07:25:36.763Z,3.38
2022-07-31T07:28:03.795Z,4.68
2022-07-31T07:30:30.821Z,2.80
2022-07-31T07:32:57.663Z,3.90
2022-07-31T07:35:24.565Z,2.92
2022-07-31T07:37:51.483Z,2.50
2022-07-31T07:40:20.490Z,3.30
2022-07-31T07:42:47.438Z,2.50
2022-07-31T07:45:14.349Z,3.45
2022-07-31T07:48:05.314Z,3.17
2022-07-31T07:50:29.231Z,3.25
2022-07-31T07:52:56.960Z,3.20
2022-07-31T07:55:23.983Z,2.57
2022-07-31T07:57:51.004Z,4.95
2022-07-31T08:00:17.878Z,3.65
2022-07-31T08:03:47.489Z,3.40
2022-07-31T08:05:35.622Z,2.70
2022-07-31T08:08:03.302Z,2.93
2022-07-31T08:10:30.326Z,4.15
2022-07-31T08:12:57.741Z,3.72
2022-07-31T08:15:25.872Z,4.75
2022-07-31T08:17:52.786Z,3.85
2022-07-31T08:20:20.302Z,3.37
2022-07-31T08:22:47.360Z,2.35
2022-07-31T08:25:15.170Z,4.10
2022-07-31T08:27:42.444Z,4.78
2022-07-31T08:30:10.968Z,4.30
2022-07-31T08:32:38.763Z,3.40
2022-07-31T08:35:06.188Z,2.25
2022-07-31T08:38:01.304Z,3.55
2022-07-31T08:40:21.097Z,3.20
2022-07-31T08:42:48.132Z,3.92
2022-07-31T08:45:15.298Z,2.60
2022-07-31T08:47:43.848Z,4.57
2022-07-31T08:50:12.272Z,2.50
2022-07-31T08:52:40.647Z,2.65
2022-07-31T08:55:09.442Z,3.85
2022-07-31T08:57:37.176Z,3.17
2022-07-31T09:00:08.350Z,3.15
2022-07-31T09:02:35.303Z,2.45
2022-07-31T09:05:02.323Z,4.28
2022-07-31T09:07:29.403Z,4.20
2022-07-31T09:09:56.269Z,2.23
2022-07-31T09:12:35.502Z,2.33
2022-07-31T09:15:02.371Z,4.30
2022-07-31T09:17:35.820Z,3.35
2022-07-31T09:20:04.260Z,5.07
2022-07-31T09:22:31.443Z,3.67
2022-07-31T09:25:19.014Z,2.55
2022-07-31T09:27:47.608Z,2.75
2022-07-31T09:30:15.560Z,3.53
2022-07-31T09:32:43.374Z,3.20
2022-07-31T09:35:11.847Z,3.00
2022-07-31T09:37:39.336Z,4.45
2022-07-31T09:40:07.954Z,3.40
2022-07-31T09:42:36.883Z,3.22
2022-07-31T09:45:16.787Z,2.53
2022-07-31T09:47:43.649Z,4.73
2022-07-31T09:50:10.645Z,3.28
2022-07-31T09:52:37.713Z,2.33
2022-07-31T09:55:15.664Z,2.47
2022-07-31T09:57:57.145Z,4.20
2022-07-31T10:00:24.308Z,3.20
2022-07-31T10:02:53.004Z,4.05
2022-07-31T10:05:20.063Z,5.63
2022-07-31T10:07:47.066Z,3.60
2022-07-31T10:10:14.127Z,3.38
2022-07-31T10:12:42.046Z,2.43
2022-07-31T10:15:13.484Z,2.42
2022-07-31T10:17:44.751Z,4.43
2022-07-31T10:20:17.391Z,2.92
2022-07-31T10:22:46.784Z,3.17
2022-07-31T10:25:20.050Z,3.53
2022-07-31T10:27:47.083Z,3.20
2022-07-31T10:30:14.206Z,3.17
2022-07-31T10:32:41.286Z,2.90
2022-07-31T10:35:08.341Z,4.10
2022-07-31T10:37:58.859Z,3.20
2022-07-31T10:40:37.781Z,2.58
2022-07-31T10:43:43.442Z,4.15
2022-07-31T10:46:10.403Z,4.45
2022-07-31T10:48:37.320Z,2.30
2022-07-31T10:51:09.646Z,3.37
2022-07-31T10:53:51.347Z,2.58
2022-07-31T10:56:22.243Z,2.60
2022-07-31T10:58:50.366Z,4.93
2022-07-31T11:01:17.873Z,3.63
2022-07-31T11:03:46.923Z,2.60
2022-07-31T11:06:16.106Z,3.05
2022-07-31T11:08:43.883Z,4.22
2022-07-31T11:11:10.992Z,2.88
2022-07-31T11:13:56.703Z,3.85
2022-07-31T11:16:23.720Z,2.83
2022-07-31T11:19:04.403Z,2.75
2022-07-31T11:21:39.805Z,2.97
2022-07-31T11:24:16.661Z,3.60
2022-07-31T11:26:53.623Z,2.80
2022-07-31T11:30:00.381Z,3.63
2022-07-31T11:32:25.144Z,2.08
2022-07-31T11:34:56.525Z,3.10
2022-07-31T11:37:24.262Z,4.15
2022-07-31T11:39:52.943Z,3.50
2022-07-31T11:42:20.801Z,3.00
2022-07-31T11:44:54.729Z,2.92
2022-07-31T11:48:09.542Z,2.85
2022-07-31T11:50:10.781Z,3.72
2022-07-31T11:52:38.006Z,3.72
2022-07-31T11:55:11.041Z,2.80
2022-07-31T11:57:52.460Z,4.93
2022-07-31T12:00:24.784Z,2.88
2022-07-31T12:02:56.569Z,2.90
2022-07-31T12:05:38.845Z,3.63
2022-07-31T12:08:07.783Z,3.00
2022-07-31T12:10:34.828Z,4.82
2022-07-31T12:13:02.243Z,2.47
2022-07-31T12:15:29.121Z,2.92
2022-07-31T12:18:03.131Z,3.10
2022-07-31T12:20:35.929Z,3.87
2022-07-31T12:23:05.186Z,2.20
2022-07-31T12:25:46.136Z,4.07
2022-07-31T12:28:16.364Z,2.88
2022-07-31T12:30:43.742Z,3.92
2022-07-31T12:33:11.501Z,3.13
2022-07-31T12:35:55.943Z,3.33
2022-07-31T12:38:41.036Z,3.30
2022-07-31T12:41:12.026Z,3.55
2022-07-31T12:43:38.913Z,3.20
2022-07-31T12:46:16.920Z,4.03
2022-07-31T12:48:46.110Z,2.80
2022-07-31T12:51:13.502Z,2.33
2022-07-31T12:53:40.382Z,2.90
2022-07-31T12:56:14.244Z,4.03
2022-07-31T12:58:41.221Z,4.73
2022-07-31T13:01:08.145Z,2.25
2022-07-31T13:03:45.981Z,3.72
2022-07-31T13:06:14.219Z,4.05
2022-07-31T13:08:43.911Z,3.13
2022-07-31T13:11:11.487Z,5.47
2022-07-31T13:13:38.366Z,2.75
2022-07-31T13:16:05.506Z,5.57
2022-07-31T13:18:32.903Z,4.15
2022-07-31T13:21:00.865Z,3.05
2022-07-31T13:23:28.047Z,3.37
2022-07-31T13:25:55.049Z,3.13
2022-07-31T13:28:21.937Z,3.80
2022-07-31T13:30:54.660Z,4.35
2022-07-31T13:33:22.083Z,3.53
2022-07-31T13:35:48.967Z,3.87
2022-07-31T13:38:15.862Z,2.60
2022-07-31T13:41:01.123Z,4.28
2022-07-31T13:43:27.988Z,4.57
2022-07-31T13:45:54.868Z,3.70
2022-07-31T13:48:21.707Z,2.30
2022-07-31T13:50:48.592Z,5.38
2022-07-31T13:53:15.442Z,3.72
2022-07-31T13:55:43.643Z,2.92
2022-07-31T13:58:12.918Z,4.28
2022-07-31T14:00:40.482Z,3.67
2022-07-31T14:03:07.361Z,3.45
2022-07-31T14:05:40.105Z,4.65
2022-07-31T14:08:30.605Z,2.55
2022-07-31T14:10:56.125Z,5.25
2022-07-31T14:13:23.062Z,3.07
2022-07-31T14:15:49.948Z,2.72
2022-07-31T14:18:16.967Z,3.33
2022-07-31T14:20:43.862Z,3.55
2022-07-31T14:23:10.764Z,3.00
2022-07-31T14:25:38.394Z,2.87
2022-07-31T14:28:06.115Z,3.10
2022-07-31T14:30:33.980Z,5.35
2022-07-31T14:33:01.788Z,5.60
2022-07-31T14:35:28.729Z,4.68
2022-07-31T14:37:55.923Z,3.03
2022-07-31T14:40:22.811Z,3.13
2022-07-31T14:42:49.762Z,4.53
2022-07-31T14:45:16.624Z,2.58
2022-07-31T14:47:46.367Z,6.28
2022-07-31T14:50:19.052Z,5.07
2022-07-31T14:52:46.717Z,2.95
2022-07-31T14:55:13.741Z,2.63
2022-07-31T14:57:40.572Z,3.50
2022-07-31T15:00:12.947Z,3.33
2022-07-31T15:02:41.601Z,2.30
2022-07-31T15:06:41.983Z,3.08
2022-07-31T15:07:56.265Z,3.30
2022-07-31T15:10:23.284Z,3.20
2022-07-31T15:12:51.093Z,2.17
2022-07-31T15:15:18.006Z,3.17
2022-07-31T15:17:44.810Z,4.20
2022-07-31T15:20:12.182Z,3.67
2022-07-31T15:22:39.010Z,3.55
2022-07-31T15:25:06.541Z,5.20
2022-07-31T15:27:33.506Z,4.33
2022-07-31T15:30:03.931Z,2.88
2022-07-31T15:32:33.954Z,2.63
2022-07-31T15:35:00.853Z,3.70
2022-07-31T15:37:27.791Z,3.15
2022-07-31T15:40:02.272Z,2.83
2022-07-31T15:42:42.956Z,3.05
2022-07-31T15:45:12.095Z,3.80
2022-07-31T15:47:39.324Z,3.28
2022-07-31T15:50:07.273Z,3.67
2022-07-31T15:52:34.110Z,3.50
2022-07-31T15:55:01.103Z,3.08
2022-07-31T15:57:28.073Z,5.30
2022-07-31T15:59:54.921Z,2.75
2022-07-31T16:02:22.684Z,3.58
2022-07-31T16:04:52.776Z,3.33
2022-07-31T16:08:29.796Z,6.38
2022-07-31T16:10:15.497Z,3.90
2022-07-31T16:12:47.512Z,3.53
2022-07-31T16:15:15.044Z,3.22
2022-07-31T16:17:43.754Z,2.63
2022-07-31T16:20:20.672Z,5.15
2022-07-31T16:22:58.520Z,3.42
2022-07-31T16:25:25.969Z,2.13
2022-07-31T16:27:53.129Z,2.40
2022-07-31T16:30:20.086Z,2.93
2022-07-31T16:32:46.969Z,3.95
2022-07-31T16:35:13.830Z,2.30
2022-07-31T16:37:51.516Z,3.17
2022-07-31T16:40:29.007Z,2.58
2022-07-31T16:43:48.617Z,2.40
2022-07-31T16:45:48.856Z,3.88
2022-07-31T16:48:15.722Z,3.65
2022-07-31T16:50:42.785Z,2.83
2022-07-31T16:53:09.641Z,3.75
2022-07-31T16:55:51.551Z,3.37
2022-07-31T16:58:27.421Z,2.97
2022-07-31T17:00:54.663Z,18.48
2022-07-31T17:03:58.361Z,3.63
2022-07-31T17:06:10.495Z,4.32
2022-07-31T17:08:38.436Z,4.50
2022-07-31T17:11:05.607Z,3.95
2022-07-31T17:13:32.625Z,3.97
2022-07-31T17:15:59.672Z,3.72
2022-07-31T17:18:26.606Z,2.70
2022-07-31T17:20:55.785Z,4.83
2022-07-31T17:23:43.452Z,3.30
2022-07-31T17:26:10.802Z,5.15
2022-07-31T17:28:48.646Z,4.03
2022-07-31T17:31:15.544Z,3.35
2022-07-31T17:33:59.678Z,2.57
2022-07-31T17:36:28.664Z,5.13
2022-07-31T17:38:56.310Z,3.60
2022-07-31T17:41:24.913Z,3.45
2022-07-31T17:43:54.340Z,3.65
2022-07-31T17:46:34.374Z,3.80
2022-07-31T17:49:03.673Z,3.90
2022-07-31T17:51:30.939Z,3.70
2022-07-31T17:53:59.313Z,2.67
2022-07-31T17:56:26.955Z,4.13
2022-07-31T17:58:53.965Z,3.87
2022-07-31T18:01:24.451Z,3.10
2022-07-31T18:03:53.940Z,3.63
2022-07-31T18:06:20.719Z,4.22
2022-07-31T18:08:47.566Z,3.05
2022-07-31T18:11:14.482Z,3.33
2022-07-31T18:13:48.575Z,4.60
2022-07-31T18:16:18.902Z,3.45
2022-07-31T18:18:45.882Z,3.95
2022-07-31T18:21:13.434Z,4.03
2022-07-31T18:23:43.684Z,3.13
2022-07-31T18:26:14.608Z,3.53
2022-07-31T18:28:41.589Z,4.38
2022-07-31T18:31:13.971Z,3.25
2022-07-31T18:33:55.381Z,3.20
2022-07-31T18:36:22.302Z,3.63
2022-07-31T18:38:49.264Z,3.83
2022-07-31T18:41:16.226Z,4.85
2022-07-31T18:43:43.085Z,3.40
2022-07-31T18:46:10.027Z,3.25
2022-07-31T18:48:37.003Z,4.00
2022-07-31T18:51:05.589Z,6.45
2022-07-31T18:53:33.363Z,3.67
2022-07-31T18:56:00.267Z,4.38
2022-07-31T18:58:27.091Z,5.20
2022-07-31T19:00:55.697Z,4.30
2022-07-31T19:03:24.371Z,6.35
2022-07-31T19:05:53.129Z,4.85
2022-07-31T19:08:20.555Z,4.03
2022-07-31T19:10:49.706Z,5.13
2022-07-31T19:13:18.893Z,6.10
2022-07-31T19:15:50.555Z,6.22
2022-07-31T19:18:17.382Z,10.52
2022-07-31T19:20:58.852Z,5.28
2022-07-31T19:23:34.983Z,6.97
2022-07-31T19:26:04.127Z,6.47
2022-07-31T19:28:32.366Z,6.25
2022-07-31T19:30:59.450Z,7.25
2022-07-31T19:33:26.486Z,7.20
2022-07-31T19:35:58.946Z,5.88
2022-07-31T19:38:27.927Z,7.20
2022-07-31T19:40:54.851Z,7.13
2022-07-31T19:43:21.781Z,6.30
2022-07-31T19:45:58.777Z,6.18
2022-07-31T19:48:36.757Z,8.45
2022-07-31T19:51:04.259Z,8.07
2022-07-31T19:53:31.123Z,8.73
2022-07-31T19:55:58.146Z,7.50
2022-07-31T19:58:25.005Z,9.45
2022-07-31T20:00:51.884Z,7.20
2022-07-31T20:03:18.961Z,10.33
2022-07-31T20:05:46.680Z,9.88
2022-07-31T20:08:13.483Z,9.75
2022-07-31T20:10:40.360Z,8.48
2022-07-31T20:13:07.285Z,8.98
2022-07-31T20:15:51.015Z,10.23
2022-07-31T20:18:27.265Z,8.77
2022-07-31T20:20:56.963Z,9.45
2022-07-31T20:23:24.588Z,9.30
2022-07-31T20:25:51.480Z,9.25
2022-07-31T20:28:18.320Z,9.17
2022-07-31T20:30:45.197Z,8.85
2022-07-31T20:33:13.226Z,8.52
2022-07-31T20:35:47.630Z,8.35
2022-07-31T20:38:15.882Z,9.18
2022-07-31T20:40:47.967Z,11.47
2022-07-31T20:43:21.815Z,10.73
2022-07-31T20:45:48.767Z,8.05
2022-07-31T20:48:17.881Z,8.65
2022-07-31T20:50:47.924Z,11.48
2022-07-31T20:53:16.127Z,9.87
2022-07-31T20:55:47.142Z,9.43
2022-07-31T20:58:14.064Z,10.70
2022-07-31T21:00:41.470Z,9.52
2022-07-31T21:03:08.407Z,9.73
2022-07-31T21:05:35.281Z,8.27
2022-07-31T21:08:02.249Z,7.78
2022-07-31T21:10:29.916Z,9.80
2022-07-31T21:12:57.370Z,9.45
2022-07-31T21:15:41.282Z,10.38
2022-07-31T21:18:15.112Z,8.53
2022-07-31T21:20:51.709Z,9.57
2022-07-31T21:23:24.351Z,11.75
2022-07-31T21:25:52.743Z,10.88
2022-07-31T21:28:19.846Z,14.30
2022-07-31T21:30:46.865Z,11.67
2022-07-31T21:33:13.804Z,11.73
2022-07-31T21:35:41.008Z,13.88
2022-07-31T21:38:11.833Z,13.82
2022-07-31T21:40:39.605Z,13.07
2022-07-31T21:43:06.873Z,14.27
2022-07-31T21:45:49.700Z,13.07
2022-07-31T21:48:20.896Z,15.77
2022-07-31T21:50:47.935Z,14.63
2022-07-31T21:53:14.808Z,13.57
2022-07-31T21:55:41.666Z,16.77
2022-07-31T21:58:08.994Z,12.68
2022-07-31T22:00:35.975Z,13.48
2022-07-31T22:03:03.549Z,14.68
2022-07-31T22:05:49.349Z,14.32
2022-07-31T22:08:16.340Z,12.13
2022-07-31T22:10:43.230Z,11.63
2022-07-31T22:13:10.259Z,16.88
2022-07-31T22:15:58.500Z,13.60
2022-07-31T22:18:26.583Z,16.75
2022-07-31T22:20:54.168Z,15.93
2022-07-31T22:23:21.266Z,14.52
2022-07-31T22:25:49.590Z,16.40
2022-07-31T22:28:20.513Z,12.50
2022-07-31T22:30:47.687Z,12.07
2022-07-31T22:33:14.654Z,11.63
2022-07-31T22:35:41.736Z,11.23
2022-07-31T22:38:08.974Z,12.35
2022-07-31T22:40:35.975Z,11.20
2022-07-31T22:43:03.329Z,11.88
2022-07-31T22:45:30.533Z,11.67
2022-07-31T22:47:57.620Z,13.80
2022-07-31T22:50:24.754Z,12.45
2022-07-31T22:52:51.813Z,13.82
2022-07-31T22:55:18.889Z,13.50
2022-07-31T22:57:45.768Z,16.33
2022-07-31T23:00:14.012Z,16.23
2022-07-31T23:02:41.727Z,13.85
2022-07-31T23:05:09.311Z,14.43
2022-07-31T23:07:36.546Z,12.82
2022-07-31T23:10:05.347Z,12.57
2022-07-31T23:12:32.191Z,13.82
2022-07-31T23:14:59.047Z,12.23
2022-07-31T23:17:26.051Z,15.57
2022-07-31T23:19:53.878Z,13.90
2022-07-31T23:22:33.288Z,13.63
2022-07-31T23:25:04.711Z,14.30
2022-07-31T23:27:32.449Z,15.63
2022-07-31T23:29:59.712Z,16.55
2022-07-31T23:32:27.470Z,15.00
2022-07-31T23:34:54.367Z,14.30
2022-07-31T23:37:21.269Z,16.88
2022-07-31T23:39:48.128Z,14.20
2022-07-31T23:42:33.232Z,16.15
2022-07-31T23:45:00.114Z,12.82
2022-07-31T23:47:44.414Z,15.17
2022-07-31T23:50:13.429Z,12.55
2022-07-31T23:52:40.333Z,16.30
2022-07-31T23:55:07.446Z,13.75
2022-07-31T23:57:36.240Z,14.15
